Terminal Aerodrome Forecast
Issued by NWS Wilmington, OH

Current Version | Previous Version | Text Only | Print | Product List | Glossary Off
Versions: 1 2 3 4 5 6 7 8 9 10 11 12 13 14 15 16 17

000
FTUS41 KILN 251731
TAFILN
TAF
KILN 251731Z 2518/2618 14007KT P6SM SCT040
     FM260100 12004KT P6SM FEW200
     FM260900 15008KT P6SM SCT200
     FM261600 17012G20KT P6SM SKC=

USA.gov is the U.S. government's official web portal to all federal, state and local government web resources and services.